createdAt,value
2023-05-12T00:00:29.280Z,101151.56
2023-05-12T00:02:59.582Z,101145.75
2023-05-12T00:05:29.659Z,101143.91
2023-05-12T00:08:02.365Z,101147.16
2023-05-12T00:10:32.689Z,101148.19
2023-05-12T00:13:02.765Z,101147.72
2023-05-12T00:15:33.019Z,101154.66
2023-05-12T00:18:03.288Z,101149.00
2023-05-12T00:20:34.144Z,101157.81
2023-05-12T00:23:06.941Z,101144.78
2023-05-12T00:25:38.249Z,101148.50
2023-05-12T00:28:08.952Z,101148.22
2023-05-12T00:30:39.110Z,101147.97
2023-05-12T00:33:09.195Z,101149.63
2023-05-12T00:35:39.457Z,101144.91
2023-05-12T00:38:13.334Z,101149.63
2023-05-12T00:40:46.086Z,101145.28
2023-05-12T00:43:16.230Z,101146.88
2023-05-12T00:45:46.803Z,101148.47
2023-05-12T00:48:17.215Z,101150.94
2023-05-12T00:50:47.604Z,101153.97
2023-05-12T00:53:20.798Z,101147.97
2023-05-12T00:55:51.064Z,101156.19
2023-05-12T00:58:22.786Z,101153.91
2023-05-12T01:00:57.387Z,101153.25
2023-05-12T01:03:28.115Z,101157.22
2023-05-12T01:06:09.018Z,101152.88
2023-05-12T01:08:44.505Z,101159.91
2023-05-12T01:11:16.399Z,101155.75
2023-05-12T01:13:46.747Z,101153.38
2023-05-12T01:16:21.992Z,101155.88
2023-05-12T01:18:57.286Z,101164.75
2023-05-12T01:21:27.861Z,101166.22
2023-05-12T01:24:04.544Z,101160.59
2023-05-12T01:26:38.018Z,101155.78
2023-05-12T01:29:10.563Z,101170.34
2023-05-12T01:31:40.879Z,101170.34
2023-05-12T01:34:11.269Z,101171.38
2023-05-12T01:36:43.931Z,101165.63
2023-05-12T01:39:14.394Z,101166.50
2023-05-12T01:41:52.328Z,101168.88
2023-05-12T01:44:26.318Z,101175.22
2023-05-12T01:46:58.884Z,101166.75
2023-05-12T01:49:29.338Z,101168.97
2023-05-12T01:52:02.767Z,101171.69
2023-05-12T01:54:34.392Z,101168.94
2023-05-12T01:57:08.407Z,101169.75
2023-05-12T01:59:41.441Z,101165.78
2023-05-12T02:02:15.304Z,101166.88
2023-05-12T02:04:45.977Z,101168.78
2023-05-12T02:07:16.251Z,101170.53
2023-05-12T02:09:51.227Z,101177.06
2023-05-12T02:12:25.668Z,101173.75
2023-05-12T02:14:58.789Z,101171.91
2023-05-12T02:17:29.530Z,101182.97
2023-05-12T02:20:04.265Z,101177.69
2023-05-12T02:22:34.776Z,101179.22
2023-05-12T02:25:05.377Z,101189.44
2023-05-12T02:27:38.720Z,101192.94
2023-05-12T02:30:11.594Z,101190.09
2023-05-12T02:32:42.196Z,101187.47
2023-05-12T02:35:14.123Z,101194.19
2023-05-12T02:37:45.513Z,101196.03
2023-05-12T02:40:16.475Z,101194.06
2023-05-12T02:42:49.388Z,101198.59
2023-05-12T02:45:19.698Z,101200.78
2023-05-12T02:47:50.130Z,101195.44
2023-05-12T02:50:21.969Z,101196.28
2023-05-12T02:52:53.868Z,101191.59
2023-05-12T02:55:24.207Z,101192.13
2023-05-12T02:57:57.521Z,101188.63
2023-05-12T03:00:30.358Z,101195.97
2023-05-12T03:03:00.546Z,101189.66
2023-05-12T03:05:31.436Z,101188.16
2023-05-12T03:08:04.803Z,101187.38
2023-05-12T03:10:36.720Z,101199.72
2023-05-12T03:13:09.857Z,101197.03
2023-05-12T03:15:40.159Z,101191.03
2023-05-12T03:18:20.966Z,101196.38
2023-05-12T03:20:52.123Z,101196.09
2023-05-12T03:23:26.257Z,101192.94
2023-05-12T03:25:56.506Z,101194.94
2023-05-12T03:28:32.353Z,101202.66
2023-05-12T03:31:02.727Z,101203.00
2023-05-12T03:33:33.180Z,101197.00
2023-05-12T03:36:03.456Z,101204.19
2023-05-12T03:38:34.702Z,101208.53
2023-05-12T03:41:08.075Z,101204.19
2023-05-12T03:43:41.616Z,101206.03
2023-05-12T03:46:12.158Z,101202.00
2023-05-12T03:48:42.340Z,101211.38
2023-05-12T03:51:12.415Z,101209.84
2023-05-12T03:53:45.480Z,101205.97
2023-05-12T03:56:17.341Z,101212.31
2023-05-12T03:58:50.076Z,101215.19
2023-05-12T04:01:20.444Z,101216.53
2023-05-12T04:03:50.579Z,101210.38
2023-05-12T04:06:20.848Z,101217.53
2023-05-12T04:08:50.962Z,101214.34
2023-05-12T04:11:21.082Z,101225.53
2023-05-12T04:13:54.336Z,101222.34
2023-05-12T04:16:24.538Z,101219.16
2023-05-12T04:18:54.834Z,101222.13
2023-05-12T04:21:25.028Z,101223.44
2023-05-12T04:23:55.374Z,101228.06
2023-05-12T04:26:29.939Z,101226.25
2023-05-12T04:29:03.373Z,101231.75
2023-05-12T04:31:33.758Z,101237.28
2023-05-12T04:34:07.708Z,101233.06
2023-05-12T04:36:38.530Z,101233.22
2023-05-12T04:39:09.688Z,101235.75
2023-05-12T04:41:41.454Z,101236.41
2023-05-12T04:44:14.485Z,101232.91
2023-05-12T04:46:44.809Z,101245.91
2023-05-12T04:49:15.021Z,101232.59
2023-05-12T04:51:45.160Z,101240.94
2023-05-12T04:54:15.602Z,101244.09
2023-05-12T04:56:46.435Z,101248.13
2023-05-12T04:59:19.270Z,101247.44
2023-05-12T05:01:51.678Z,101247.34
2023-05-12T05:04:25.583Z,101255.72
2023-05-12T05:06:55.788Z,101253.66
2023-05-12T05:09:27.178Z,101262.09
2023-05-12T05:11:57.567Z,101259.88
2023-05-12T05:14:30.346Z,101266.00
2023-05-12T05:17:00.825Z,101274.09
2023-05-12T05:19:44.726Z,101269.78
2023-05-12T05:22:22.256Z,101274.59
2023-05-12T05:24:52.789Z,101261.03
2023-05-12T05:27:22.993Z,101263.94
2023-05-12T05:29:56.694Z,101264.38
2023-05-12T05:32:27.038Z,101269.25
2023-05-12T05:34:57.327Z,101267.88
2023-05-12T05:37:27.842Z,101266.88
2023-05-12T05:39:59.708Z,101267.47
2023-05-12T05:42:30.220Z,101270.00
2023-05-12T05:45:03.196Z,101271.63
2023-05-12T05:47:34.624Z,101269.56
2023-05-12T05:50:04.857Z,101273.91
2023-05-12T05:52:37.229Z,101276.59
2023-05-12T05:55:08.862Z,101276.53
2023-05-12T05:57:39.124Z,101277.59
2023-05-12T06:00:14.485Z,101284.44
2023-05-12T06:02:47.293Z,101282.34
2023-05-12T06:05:21.549Z,101281.88
2023-05-12T06:07:51.861Z,101291.34
2023-05-12T06:10:22.486Z,101297.13
2023-05-12T06:12:53.220Z,101289.59
2023-05-12T06:15:27.107Z,101297.03
2023-05-12T06:17:57.238Z,101292.19
2023-05-12T06:20:27.662Z,101293.84
2023-05-12T06:22:58.457Z,101294.06
2023-05-12T06:25:28.818Z,101301.63
2023-05-12T06:27:59.164Z,101307.94
2023-05-12T06:30:31.950Z,101311.56
2023-05-12T06:33:02.548Z,101314.03
2023-05-12T06:35:32.816Z,101316.75
2023-05-12T06:38:06.291Z,101305.50
2023-05-12T06:40:36.718Z,101313.06
2023-05-12T06:43:07.532Z,101311.84
2023-05-12T06:45:41.944Z,101315.06
2023-05-12T06:48:12.228Z,101311.41
2023-05-12T06:50:42.537Z,101307.56
2023-05-12T06:53:12.689Z,101319.63
2023-05-12T06:55:44.348Z,101311.50
2023-05-12T06:58:14.521Z,101313.75
2023-05-12T07:00:47.409Z,101309.03
2023-05-12T07:03:17.770Z,101309.47
2023-05-12T07:05:48.021Z,101304.50
2023-05-12T07:08:18.381Z,101312.22
2023-05-12T07:10:48.733Z,101315.41
2023-05-12T07:13:19.228Z,101315.56
2023-05-12T07:15:51.922Z,101314.88
2023-05-12T07:18:22.210Z,101313.31
2023-05-12T07:20:52.467Z,101315.88
2023-05-12T07:23:22.675Z,101316.25
2023-05-12T07:25:52.662Z,101313.88
2023-05-12T07:28:22.853Z,101323.50
2023-05-12T07:30:55.515Z,101318.94
2023-05-12T07:33:25.817Z,101328.28
2023-05-12T07:35:55.900Z,101327.72
2023-05-12T07:38:26.000Z,101316.22
2023-05-12T07:40:56.171Z,101311.53
2023-05-12T07:43:26.645Z,101316.97
2023-05-12T07:46:01.175Z,101320.06
2023-05-12T07:48:31.345Z,101316.44
2023-05-12T07:51:01.442Z,101319.31
2023-05-12T07:53:45.021Z,101319.44
2023-05-12T07:56:15.155Z,101325.50
2023-05-12T07:58:47.696Z,101327.72
2023-05-12T08:01:20.704Z,101320.53
2023-05-12T08:03:51.539Z,101321.38
2023-05-12T08:06:21.982Z,101318.91
2023-05-12T08:08:52.086Z,101315.84
2023-05-12T08:11:22.377Z,101312.84
2023-05-12T08:13:52.500Z,101313.16
2023-05-12T08:16:25.103Z,101314.75
2023-05-12T08:18:55.295Z,101316.69
2023-05-12T08:21:25.459Z,101311.22
2023-05-12T08:23:55.729Z,101313.97
2023-05-12T08:26:25.844Z,101326.59
2023-05-12T08:28:56.649Z,101316.63
2023-05-12T08:31:29.672Z,101325.91
2023-05-12T08:34:09.890Z,101318.75
2023-05-12T08:36:40.940Z,101317.78
2023-05-12T08:39:11.490Z,101323.41
2023-05-12T08:41:46.796Z,101327.16
2023-05-12T08:44:18.281Z,101319.97
2023-05-12T08:46:51.510Z,101323.41
2023-05-12T08:49:24.279Z,101323.47
2023-05-12T08:51:58.162Z,101323.06
2023-05-12T08:54:30.703Z,101321.50
2023-05-12T08:59:34.804Z,101321.22
2023-05-12T09:02:11.123Z,101316.66
2023-05-12T09:04:41.394Z,101324.44
2023-05-12T09:07:12.335Z,101324.53
2023-05-12T09:09:47.227Z,101320.09
2023-05-12T09:12:22.203Z,101317.69
2023-05-12T09:15:01.673Z,101310.97
2023-05-12T09:17:34.551Z,101326.34
2023-05-12T09:20:08.656Z,101313.16
2023-05-12T09:22:40.155Z,101308.50
2023-05-12T09:25:20.666Z,101307.13
2023-05-12T09:27:52.759Z,101298.66
2023-05-12T09:30:38.374Z,101308.84
2023-05-12T09:33:12.079Z,101311.84
2023-05-12T09:35:43.744Z,101306.97
2023-05-12T09:38:15.588Z,101302.28
2023-05-12T09:40:46.261Z,101307.94
2023-05-12T09:43:16.572Z,101308.53
2023-05-12T09:45:47.839Z,101303.88
2023-05-12T09:48:21.289Z,101308.88
2023-05-12T09:50:54.692Z,101309.41
2023-05-12T09:53:24.986Z,101308.84
2023-05-12T09:55:55.072Z,101301.75
2023-05-12T09:58:27.572Z,101293.81
2023-05-12T10:01:20.880Z,101300.06
2023-05-12T10:03:56.897Z,101302.56
2023-05-12T10:06:30.035Z,101302.84
2023-05-12T10:09:12.208Z,101294.09
2023-05-12T10:11:43.505Z,101300.66
2023-05-12T10:14:13.940Z,101296.28
2023-05-12T10:16:45.875Z,101299.03
2023-05-12T10:19:20.343Z,101292.09
2023-05-12T10:21:50.741Z,101300.19
2023-05-12T10:24:21.040Z,101302.06
2023-05-12T10:26:51.295Z,101296.75
2023-05-12T10:29:22.180Z,101300.59
2023-05-12T10:31:52.923Z,101293.19
2023-05-12T10:34:26.117Z,101294.00
2023-05-12T10:36:56.410Z,101307.97
2023-05-12T10:39:33.102Z,101292.06
2023-05-12T10:42:09.183Z,101280.66
2023-05-12T10:44:50.563Z,101275.59
2023-05-12T10:47:20.789Z,101293.44
2023-05-12T10:49:59.081Z,101287.00
2023-05-12T10:52:29.325Z,101289.16
2023-05-12T10:55:04.181Z,101279.03
2023-05-12T10:57:35.670Z,101283.25
2023-05-12T11:00:06.681Z,101276.25
2023-05-12T11:02:38.393Z,101282.78
2023-05-12T11:05:15.182Z,101278.00
2023-05-12T11:07:52.541Z,101282.41
2023-05-12T11:10:24.406Z,101277.50
2023-05-12T11:12:57.679Z,101275.88
2023-05-12T11:15:28.461Z,101267.03
2023-05-12T11:18:05.124Z,101269.78
2023-05-12T11:20:38.452Z,101275.47
2023-05-12T11:23:08.642Z,101277.94
2023-05-12T11:25:39.026Z,101274.94
2023-05-12T11:28:14.303Z,101269.22
2023-05-12T11:30:54.974Z,101272.00
2023-05-12T11:33:28.384Z,101269.91
2023-05-12T11:36:01.274Z,101281.47
2023-05-12T11:38:31.490Z,101275.66
2023-05-12T11:41:01.724Z,101279.72
2023-05-12T11:43:33.489Z,101271.38
2023-05-12T11:46:03.615Z,101274.91
2023-05-12T11:48:37.544Z,101280.13
2023-05-12T11:51:11.366Z,101280.13
2023-05-12T11:53:43.987Z,101278.06
2023-05-12T11:56:22.190Z,101282.59
2023-05-12T11:59:00.032Z,101283.28
2023-05-12T12:01:30.278Z,101278.75
2023-05-12T12:04:00.754Z,101282.75
2023-05-12T12:06:34.042Z,101280.69
2023-05-12T12:09:04.356Z,101282.50
2023-05-12T12:11:34.919Z,101282.13
2023-05-12T12:14:05.106Z,101282.03
2023-05-12T12:16:35.915Z,101282.88
2023-05-12T12:19:07.574Z,101297.03
2023-05-12T12:21:40.506Z,101288.41
2023-05-12T12:24:11.573Z,101284.88
2023-05-12T12:26:41.885Z,101288.25
2023-05-12T12:29:12.208Z,101284.09
2023-05-12T12:31:42.483Z,101286.53
2023-05-12T12:34:12.965Z,101275.63
2023-05-12T12:36:46.966Z,101282.84
2023-05-12T12:39:19.692Z,101281.00
2023-05-12T12:41:50.999Z,101282.13
2023-05-12T12:44:21.939Z,101275.13
2023-05-12T12:46:52.227Z,101274.13
2023-05-12T12:49:22.420Z,101289.88
2023-05-12T12:51:55.741Z,101281.94
2023-05-12T12:54:27.745Z,101272.31
2023-05-12T12:57:02.239Z,101269.31
2023-05-12T12:59:32.386Z,101273.13
2023-05-12T13:02:02.750Z,101281.19
2023-05-12T13:04:33.439Z,101280.72
2023-05-12T13:07:06.774Z,101266.97
2023-05-12T13:09:37.119Z,101255.41
2023-05-12T13:12:08.201Z,101252.78
2023-05-12T13:14:40.258Z,101278.22
2023-05-12T13:17:11.209Z,101266.16
2023-05-12T13:19:42.169Z,101268.44
2023-05-12T13:22:15.355Z,101272.81
2023-05-12T13:24:45.618Z,101267.13
2023-05-12T13:27:18.811Z,101276.56
2023-05-12T13:29:49.112Z,101271.47
2023-05-12T13:32:21.192Z,101271.91
2023-05-12T13:34:51.620Z,101269.09
2023-05-12T13:37:24.483Z,101258.84
2023-05-12T13:39:54.646Z,101252.03
2023-05-12T13:42:24.960Z,101252.75
2023-05-12T13:44:56.610Z,101248.59
2023-05-12T13:47:27.165Z,101249.31
2023-05-12T13:49:57.741Z,101261.06
2023-05-12T13:52:30.717Z,101252.53
2023-05-12T13:55:21.042Z,101259.72
2023-05-12T13:57:51.682Z,101244.53
2023-05-12T14:00:22.563Z,101248.81
2023-05-12T14:02:52.671Z,101246.44
2023-05-12T14:05:23.332Z,101244.28
2023-05-12T14:07:56.288Z,101243.13
2023-05-12T14:10:26.381Z,101241.75
2023-05-12T14:12:56.578Z,101239.84
2023-05-12T14:15:36.518Z,101241.06
2023-05-12T14:18:17.014Z,101238.41
2023-05-12T14:20:47.331Z,101243.38
2023-05-12T14:23:20.070Z,101242.13
2023-05-12T14:25:50.242Z,101248.22
2023-05-12T14:28:20.321Z,101244.06
2023-05-12T14:30:50.531Z,101242.75
2023-05-12T14:33:20.801Z,101247.34
2023-05-12T14:36:03.184Z,101241.22
2023-05-12T14:38:42.314Z,101240.16
2023-05-12T14:41:12.563Z,101244.75
2023-05-12T14:43:42.618Z,101240.03
2023-05-12T14:46:13.921Z,101245.72
2023-05-12T14:48:44.444Z,101244.75
2023-05-12T14:51:14.557Z,101257.28
2023-05-12T14:53:47.700Z,101247.06
2023-05-12T14:56:17.788Z,101247.06
2023-05-12T14:58:47.806Z,101245.59
2023-05-12T15:01:17.989Z,101244.13
2023-05-12T15:03:48.672Z,101244.63
2023-05-12T15:06:18.894Z,101239.34
2023-05-12T15:08:52.313Z,101237.28
2023-05-12T15:11:22.402Z,101235.72
2023-05-12T15:13:52.600Z,101233.00
2023-05-12T15:16:23.349Z,101237.03
2023-05-12T15:18:58.197Z,101231.13
2023-05-12T15:21:28.356Z,101238.19
2023-05-12T15:24:01.118Z,101244.63
2023-05-12T15:26:33.631Z,101243.34
2023-05-12T15:29:05.220Z,101242.13
2023-05-12T15:31:35.443Z,101241.69
2023-05-12T15:34:06.371Z,101247.00
2023-05-12T15:36:36.536Z,101250.31
2023-05-12T15:39:09.216Z,101242.28
2023-05-12T15:41:39.458Z,101233.91
2023-05-12T15:44:09.507Z,101250.06
2023-05-12T15:46:39.701Z,101243.50
2023-05-12T15:49:10.198Z,101233.72
2023-05-12T15:51:40.511Z,101236.31
2023-05-12T15:54:13.207Z,101229.72
2023-05-12T15:56:43.622Z,101233.50
2023-05-12T15:59:14.262Z,101239.97
2023-05-12T16:01:44.442Z,101234.44
2023-05-12T16:04:14.568Z,101233.72
2023-05-12T16:06:44.821Z,101242.91
2023-05-12T16:09:17.542Z,101234.06
2023-05-12T16:11:48.967Z,101236.78
2023-05-12T16:14:22.465Z,101233.38
2023-05-12T16:16:53.409Z,101233.28
2023-05-12T16:19:23.624Z,101236.22
2023-05-12T16:21:54.849Z,101229.09
2023-05-12T16:24:28.772Z,101230.97
2023-05-12T16:26:58.959Z,101235.00
2023-05-12T16:29:29.365Z,101234.28
2023-05-12T16:31:59.498Z,101231.34
2023-05-12T16:34:29.611Z,101229.56
2023-05-12T16:36:59.759Z,101224.84
2023-05-12T16:39:34.058Z,101228.28
2023-05-12T16:42:04.277Z,101225.81
2023-05-12T16:44:35.755Z,101219.91
2023-05-12T16:47:08.119Z,101228.50
2023-05-12T16:49:38.383Z,101229.66
2023-05-12T16:52:10.424Z,101228.16
2023-05-12T16:54:44.674Z,101232.94
2023-05-12T16:57:14.783Z,101234.81
2023-05-12T16:59:44.930Z,101233.75
2023-05-12T17:02:15.060Z,101237.03
2023-05-12T17:04:46.762Z,101234.03
2023-05-12T17:07:16.920Z,101240.22
2023-05-12T17:09:49.616Z,101237.25
2023-05-12T17:12:19.974Z,101243.84
2023-05-12T17:15:03.265Z,101241.13
2023-05-12T17:17:37.117Z,101247.72
2023-05-12T17:20:09.376Z,101248.47
2023-05-12T17:22:44.313Z,101245.31
2023-05-12T17:25:17.470Z,101248.06
2023-05-12T17:27:48.262Z,101254.53
2023-05-12T17:30:21.666Z,101251.81
2023-05-12T17:32:52.091Z,101254.38
2023-05-12T17:35:22.821Z,101257.09
2023-05-12T17:37:55.767Z,101264.75
2023-05-12T17:40:28.745Z,101259.34
2023-05-12T17:42:58.800Z,101264.16
2023-05-12T17:45:28.962Z,101261.78
2023-05-12T17:47:59.240Z,101256.06
2023-05-12T17:50:29.689Z,101268.00
2023-05-12T17:52:59.926Z,101253.75
2023-05-12T17:55:32.883Z,101267.13
2023-05-12T17:58:03.144Z,101268.41
2023-05-12T18:00:33.432Z,101274.22
2023-05-12T18:03:03.871Z,101271.53
2023-05-12T18:05:35.962Z,101273.63
2023-05-12T18:08:07.655Z,101276.50
2023-05-12T18:10:41.611Z,101282.75
2023-05-12T18:13:11.826Z,101277.56
2023-05-12T18:15:42.107Z,101287.75
2023-05-12T18:18:12.542Z,101287.59
2023-05-12T18:20:43.916Z,101287.00
2023-05-12T18:23:14.158Z,101293.69
2023-05-12T18:25:47.323Z,101292.88
2023-05-12T18:28:17.365Z,101298.38
2023-05-12T18:30:47.510Z,101291.75
2023-05-12T18:33:17.999Z,101296.19
2023-05-12T18:35:48.141Z,101291.88
2023-05-12T18:38:18.318Z,101294.84
2023-05-12T18:40:51.096Z,101307.38
2023-05-12T18:43:21.624Z,101306.97
2023-05-12T18:45:51.928Z,101306.44
2023-05-12T18:48:22.019Z,101321.22
2023-05-12T18:50:52.427Z,101317.97
2023-05-12T18:53:22.720Z,101313.59
2023-05-12T18:55:55.417Z,101315.50
2023-05-12T18:58:40.626Z,101317.22
2023-05-12T19:01:11.041Z,101327.22
2023-05-12T19:03:41.532Z,101331.00
2023-05-12T19:06:14.417Z,101332.28
2023-05-12T19:08:44.671Z,101340.19
2023-05-12T19:11:17.648Z,101333.19
2023-05-12T19:13:50.834Z,101340.25
2023-05-12T19:16:24.338Z,101347.75
2023-05-12T19:18:54.675Z,101339.69
2023-05-12T19:21:25.104Z,101340.09
2023-05-12T19:23:55.724Z,101347.59
2023-05-12T19:26:28.481Z,101348.84
2023-05-12T19:29:00.672Z,101344.94
2023-05-12T19:31:31.398Z,101346.81
2023-05-12T19:34:01.563Z,101352.00
2023-05-12T19:36:32.831Z,101353.03
2023-05-12T19:39:03.219Z,101351.38
2023-05-12T19:41:36.096Z,101348.50
2023-05-12T19:44:08.655Z,101358.25
2023-05-12T19:46:39.027Z,101360.72
2023-05-12T19:49:09.573Z,101356.59
2023-05-12T19:51:39.897Z,101361.75
2023-05-12T19:54:10.397Z,101365.28
2023-05-12T19:56:43.364Z,101368.59
2023-05-12T19:59:13.536Z,101367.34
2023-05-12T20:01:53.761Z,101371.47
2023-05-12T20:04:38.008Z,101370.84
2023-05-12T20:07:35.584Z,101375.19
2023-05-12T20:10:31.512Z,101374.38
2023-05-12T20:13:07.543Z,101373.75
2023-05-12T20:15:44.222Z,101369.81
2023-05-12T20:18:17.206Z,101370.59
2023-05-12T20:21:05.250Z,101372.66
2023-05-12T20:23:35.554Z,101372.25
2023-05-12T20:26:10.185Z,101369.75
2023-05-12T20:28:42.985Z,101375.53
2023-05-12T20:31:14.753Z,101369.53
2023-05-12T20:33:45.235Z,101373.84
2023-05-12T20:36:22.591Z,101377.97
2023-05-12T20:38:52.968Z,101381.47
2023-05-12T20:41:23.026Z,101392.44
2023-05-12T20:43:56.588Z,101377.50
2023-05-12T20:46:28.309Z,101385.16
2023-05-12T20:48:58.530Z,101381.41
2023-05-12T20:51:28.996Z,101385.53
2023-05-12T20:54:14.614Z,101384.69
2023-05-12T20:56:46.655Z,101387.38
2023-05-12T20:59:20.274Z,101392.78
2023-05-12T21:01:50.705Z,101394.44
2023-05-12T21:04:20.895Z,101390.06
2023-05-12T21:06:53.318Z,101396.88
2023-05-12T21:09:24.179Z,101394.78
2023-05-12T21:11:54.523Z,101390.22
2023-05-12T21:14:27.999Z,101399.75
2023-05-12T21:16:58.142Z,101402.25
2023-05-12T21:19:28.255Z,101401.00
2023-05-12T21:21:59.059Z,101398.91
2023-05-12T21:24:29.419Z,101410.47
2023-05-12T21:27:00.052Z,101410.88
2023-05-12T21:29:32.964Z,101413.75
2023-05-12T21:32:07.199Z,101413.94
2023-05-12T21:34:37.743Z,101412.69
2023-05-12T21:37:12.143Z,101418.66
2023-05-12T21:39:42.287Z,101416.97
2023-05-12T21:42:12.332Z,101417.34
2023-05-12T21:44:45.127Z,101414.03
2023-05-12T21:47:15.821Z,101417.72
2023-05-12T21:49:48.394Z,101413.91
2023-05-12T21:52:34.216Z,101415.97
2023-05-12T21:55:05.537Z,101410.97
2023-05-12T21:57:37.762Z,101417.56
2023-05-12T22:00:20.540Z,101414.25
2023-05-12T22:02:50.898Z,101414.19
2023-05-12T22:05:21.307Z,101412.09
2023-05-12T22:07:51.745Z,101417.41
2023-05-12T22:10:22.227Z,101417.81
2023-05-12T22:12:52.587Z,101414.41
2023-05-12T22:15:25.830Z,101415.56
2023-05-12T22:17:56.274Z,101418.84
2023-05-12T22:20:29.262Z,101419.59
2023-05-12T22:22:59.726Z,101415.00
2023-05-12T22:25:29.887Z,101416.41
2023-05-12T22:28:00.291Z,101419.50
2023-05-12T22:30:33.609Z,101411.63
2023-05-12T22:33:03.863Z,101416.31
2023-05-12T22:35:36.230Z,101417.34
2023-05-12T22:38:06.724Z,101413.78
2023-05-12T22:40:37.246Z,101411.03
2023-05-12T22:43:07.483Z,101415.72
2023-05-12T22:45:40.241Z,101418.53
2023-05-12T22:48:11.258Z,101414.94
2023-05-12T22:50:45.032Z,101415.97
2023-05-12T22:53:15.769Z,101416.97
2023-05-12T22:55:47.360Z,101414.84
2023-05-12T22:58:17.701Z,101417.06
2023-05-12T23:00:52.543Z,101422.16
2023-05-12T23:03:22.980Z,101413.84
2023-05-12T23:05:53.688Z,101421.25
2023-05-12T23:08:27.057Z,101417.09
2023-05-12T23:10:58.014Z,101411.09
2023-05-12T23:13:28.388Z,101416.00
2023-05-12T23:16:01.781Z,101417.41
2023-05-12T23:18:32.379Z,101412.41
2023-05-12T23:21:02.487Z,101414.78
2023-05-12T23:23:33.645Z,101415.81
2023-05-12T23:26:04.456Z,101408.88
2023-05-12T23:28:34.914Z,101403.72
2023-05-12T23:31:08.117Z,101414.34
2023-05-12T23:33:38.631Z,101418.50
2023-05-12T23:36:09.646Z,101406.41
2023-05-12T23:38:39.862Z,101407.59
2023-05-12T23:41:10.459Z,101411.47
2023-05-12T23:43:41.196Z,101410.00
2023-05-12T23:46:13.988Z,101412.88
2023-05-12T23:48:44.562Z,101413.69
2023-05-12T23:51:19.914Z,101401.31
2023-05-12T23:53:50.115Z,101404.38
2023-05-12T23:56:20.277Z,101406.22
2023-05-12T23:58:50.368Z,101402.53
